Flight Track Log - Related Links

Times and Time Zones

All times are in EDT time to prevent confusion due to time zone crossing. See the KAP29 flight status page for this flight to view local times or setup timezone preferences in your user account.

Time Position Orientation Groundspeed Altitude Reporting Facility
EDT Latitude Longitude Course Direction KTS MPH feet Rate Location/Type
Thu 01:13:22 PM 42.3667 -71.0167 236° Southwest 100 115 400  Level KA90
Thu 01:14:22 PM 42.3500 -71.0500 236° Southwest 113 130 1,400 714 Climbing KA90
Thu 01:15:28 PM 42.3500 -71.0833 270° West 121 139 1,900 476 Climbing KA90
Thu 01:16:28 PM 42.3667 -71.1333 294° West 124 143 2,400 524 Climbing KA90
Thu 01:17:34 PM 42.3667 -71.1833 270° West 137 158 3,000 550 Climbing KA90
Thu 01:18:28 PM 42.4000 -71.2000 340° North 122 140 3,500 526 Climbing KA90
Thu 01:19:28 PM 42.4333 -71.2333 324° Northwest 125 144 4,000 600 Climbing KA90
Thu 01:20:28 PM 42.4667 -71.2333 360° North 124 143 4,700 613 Climbing KA90
Thu 01:22:34 PM 42.5333 -71.2667 340° North 124 143 5,900 483 Climbing KA90
Thu 01:23:22 PM 42.5667 -71.2667 360° North 140 161 6,100 526 Climbing KA90
Thu 01:24:28 PM 42.6000 -71.2833 340° North 126 145 6,900 667 Climbing KA90
Thu 01:25:28 PM 42.6333 -71.3000 340° North 128 147 7,500 526 Climbing KA90
Thu 01:26:22 PM 42.6667 -71.3167 340° North 125 144 7,900 263 Climbing KA90
Thu 01:27:22 PM 42.7000 -71.3167 360° North 141 162 8,000 53 Climbing KA90
Thu 01:28:16 PM 42.7500 -71.3333 346° North 161 185 8,000  Level KA90
Thu 01:29:22 PM 42.8000 -71.3500 346° North 166 191 8,000  Level KA90
Thu 01:30:22 PM 42.8333 -71.3667 340° North 165 190 8,000  Level KA90
Thu 01:31:22 PM 42.8833 -71.3833 346° North 166 191 8,000  Level KA90
Thu 01:32:16 PM 42.9167 -71.4333 312° West 165 190 8,000  Level KA90
Thu 01:33:16 PM 42.9333 -71.4833 294° West 165 190 8,000  Level KA90
Thu 01:34:16 PM 42.9667 -71.5167 324° Northwest 167 192 8,000  Level KA90
Thu 01:35:10 PM 43.0000 -71.5667 312° West 165 190 8,000  Level KA90
Thu 01:36:16 PM 43.0333 -71.6167 312° West 156 180 8,000  Level KA90
Thu 01:37:16 PM 43.0667 -71.6500 324° Northwest 153 176 8,000  Level KA90
Thu 01:38:17 PM 43.0833 -71.7000 295° West 153 176 8,000  Level KA90
Thu 01:39:16 PM 43.1167 -71.7333 324° Northwest 152 175 8,000  Level KA90
Thu 01:39:51 PM 43.1278 -71.7603 299° West 153 176 8,000  Level Boston Center
Thu 01:40:51 PM 43.1614 -71.8081 314° West 158 182 8,000  Level Boston Center
Thu 01:41:51 PM 43.1867 -71.8450 313° West 147 169 8,000  Level Boston Center
Thu 01:42:51 PM 43.2181 -71.8903 314° West 147 169 8,000  Level Boston Center
Thu 01:43:51 PM 43.2433 -71.9272 313° West 147 169 8,000  Level Boston Center
Thu 01:44:51 PM 43.2747 -71.9753 312° West 147 169 8,000  Level Boston Center
Thu 01:45:51 PM 43.3000 -72.0122 313° West 147 169 8,000  Level Boston Center
Thu 01:46:51 PM 43.3314 -72.0606 312° West 153 176 8,000  Level Boston Center
Thu 01:47:51 PM 43.3586 -72.1003 313° West 153 176 8,000  Level Boston Center
Thu 01:48:51 PM 43.3900 -72.1458 313° West 153 176 8,000  Level Boston Center
Thu 01:49:51 PM 43.4192 -72.1886 313° West 158 182 8,000  Level Boston Center
Thu 01:50:51 PM 43.4506 -72.2314 315° West 158 182 8,000  Level Boston Center
Thu 01:51:51 PM 43.4797 -72.2797 310° West 158 182 8,000  Level Boston Center
Thu 01:52:51 PM 43.5069 -72.3283 308° West 158 182 8,000  Level Boston Center
Thu 01:53:51 PM 43.5383 -72.3714 315° West 158 182 8,000  Level Boston Center
Thu 01:54:51 PM 43.5675 -72.4144 313° West 158 182 8,000  Level Boston Center
Thu 01:55:51 PM 43.5986 -72.4631 311° West 158 182 8,000  Level Boston Center
Thu 01:56:51 PM 43.6278 -72.5061 313° West 158 182 8,000  Level Boston Center
Thu 01:57:51 PM 43.6592 -72.5519 313° West 158 182 8,000  Level Boston Center
Thu 01:58:51 PM 43.6883 -72.5981 311° West 158 182 8,000  Level Boston Center
Thu 01:59:51 PM 43.7214 -72.6469 313° West 158 182 8,000 -50 Level Boston Center
Thu 02:00:51 PM 43.7528 -72.6903 315° West 158 182 7,900 -50 Descending Boston Center
Thu 02:01:51 PM 43.7775 -72.7306 310° West 158 182 7,900  Level Boston Center
Thu 02:02:51 PM 43.8108 -72.7825 312° West 158 182 7,900  Level Boston Center
Thu 02:03:51 PM 43.8439 -72.8286 315° West 158 182 7,900  Level Boston Center
Thu 02:04:51 PM 43.8731 -72.8750 311° West 158 182 7,900  Level Boston Center
Thu 02:05:51 PM 43.9039 -72.9214 313° West 158 182 7,900  Level Boston Center
Thu 02:06:51 PM 43.9372 -72.9678 315° West 158 182 7,900  Level Boston Center
Thu 02:07:51 PM 43.9681 -73.0169 311° West 158 182 7,900  Level Boston Center
Thu 02:08:51 PM 44.0033 -73.0692 313° West 158 182 7,900  Level Boston Center
Thu 02:09:51 PM 44.0322 -73.1158 311° West 158 182 7,900  Level Boston Center
Thu 02:10:51 PM 44.0633 -73.1625 313° West 158 182 7,900  Level Boston Center
Thu 02:11:51 PM 44.0964 -73.2061 317° Northwest 158 182 7,900  Level Boston Center
Thu 02:12:51 PM 44.1272 -73.2556 311° West 158 182 7,900  Level Boston Center
Thu 02:13:51 PM 44.1581 -73.3053 311° West 158 182 7,900  Level Boston Center
Thu 02:14:51 PM 44.1911 -73.3550 313° West 158 182 7,900  Level Boston Center
Thu 02:15:51 PM 44.2219 -73.4047 311° West 163 188 7,900  Level Boston Center
Thu 02:16:51 PM 44.2569 -73.4547 314° West 163 188 7,900  Level Boston Center
Thu 02:17:51 PM 44.2878 -73.5014 313° West 163 188 7,900  Level Boston Center
Thu 02:19:00 PM 44.3196 -73.5500 312° West  Level FlightAware Approximate
Thu 02:20:39 PM 44.3800 -73.6483 312° West 174 200 7,900  Level Boston Center
Thu 02:21:39 PM 44.4128 -73.6897 318° Northwest 174 200 7,900  Level Boston Center
Thu 02:22:39 PM 44.4436 -73.7397 311° West 168 193 7,900  Level Boston Center
Thu 02:23:39 PM 44.4742 -73.7900 310° West 168 193 7,900 50 Level Boston Center
Thu 02:24:39 PM 44.5050 -73.8344 314° West 168 193 8,000 50 Climbing Boston Center
Thu 02:25:39 PM 44.5356 -73.8817 312° West 168 193 8,000 -400 Level Boston Center
Thu 02:26:39 PM 44.5536 -73.9492 291° West 174 200 7,200 -800 Descending Boston Center

Login

Don't have an account? Register now (free) for customized features, flight alerts, and more!